CONNECT WITH FLYNQY PILOT TRAINING

Newquay Five Day Forecast

This Weather Widget is provided by the Met Office

EGHQ TAF and METAR

METAR

EGHQ 021220Z 26022KT 9999 FEW020 06/00 Q1014

TAF

TAF EGHQ 021101Z 0212/0221 27019KT 9999 SCT025 TEMPO 0212/0221 27025G35KT 7000 SHRA PROB40 TEMPO 0212/0221 3000 +SHGS BKN012 BKN020CB